Time;durP1;ratioP1;P1;durP2;ratioP2;P2;SDS_P1;SDS_P2;PMS_P1;PMS_P2;Temp;Humidity;BMP_temperature;BMP_pressure;BME280_temperature;BME280_humidity;BME280_pressure;Samples;Min_cycle;Max_cycle;Signal;HPM_P1;HPM_P2
2022/11/04 00:01:18;;;;;;;0.00;0.00;;;10.90;99.90;;;;;;5051387;28;20673;-67
2022/11/04 00:03:44;;;;;;;0.00;0.00;;;10.90;99.90;;;;;;5051220;28;20769;-67
2022/11/04 00:06:09;;;;;;;0.00;0.00;;;10.90;99.90;;;;;;5051988;28;20180;-67
2022/11/04 00:08:35;;;;;;;0.00;0.00;;;11.00;99.90;;;;;;5051073;28;20233;-67
2022/11/04 00:13:46;;;;;;;0.00;0.00;;;11.00;99.90;;;;;;5041381;28;20596;-67
2022/11/04 00:18:59;;;;;;;0.00;0.00;;;11.00;99.90;;;;;;5050850;28;20608;-67
2022/11/04 00:29:42;;;;;;;0.00;0.00;;;11.10;99.90;;;;;;5040331;28;20453;-66
2022/11/04 00:34:52;;;;;;;0.00;0.00;;;11.10;99.90;;;;;;5050821;28;20188;-67
2022/11/04 00:37:18;;;;;;;0.00;0.00;;;11.10;99.90;;;;;;5050112;28;20173;-67
2022/11/04 00:39:44;;;;;;;0.00;0.00;;;11.10;99.90;;;;;;5051163;28;20645;-67
2022/11/04 00:42:09;;;;;;;0.00;0.00;;;11.10;99.90;;;;;;5050899;28;20177;-67
2022/11/04 00:44:35;;;;;;;0.00;0.00;;;11.10;99.90;;;;;;5051456;28;20174;-67
2022/11/04 00:47:00;;;;;;;0.00;0.00;;;11.10;99.90;;;;;;5054496;28;20185;-66
2022/11/04 00:49:26;;;;;;;0.00;0.00;;;11.10;99.90;;;;;;5054935;28;20274;-67
2022/11/04 00:51:51;;;;;;;0.00;0.00;;;11.10;99.90;;;;;;5055296;28;20189;-67
2022/11/04 00:54:17;;;;;;;0.00;0.00;;;11.10;99.90;;;;;;5054944;28;20276;-67
2022/11/04 00:56:42;;;;;;;0.00;0.00;;;11.10;99.90;;;;;;5054888;28;20701;-67
2022/11/04 00:59:09;;;;;;;0.00;0.00;;;11.00;99.90;;;;;;5054926;28;20242;-67
2022/11/04 01:01:35;;;;;;;0.00;0.00;;;11.00;99.90;;;;;;5054746;28;20197;-67
2022/11/04 01:04:00;;;;;;;0.00;0.00;;;11.00;99.90;;;;;;5053379;28;20551;-67
2022/11/04 01:06:26;;;;;;;0.00;0.00;;;11.00;99.90;;;;;;5054366;28;20186;-67
2022/11/04 01:08:56;;;;;;;0.00;0.00;;;11.00;99.90;;;;;;5054607;28;20217;-67
2022/11/04 01:11:22;;;;;;;0.00;0.00;;;11.00;99.90;;;;;;5054343;28;20617;-67
2022/11/04 01:13:51;;;;;;;0.00;0.00;;;11.00;99.90;;;;;;5054839;28;20262;-67
2022/11/04 01:16:17;;;;;;;0.00;0.00;;;11.00;99.90;;;;;;5054190;28;20185;-67
2022/11/04 01:18:43;;;;;;;0.00;0.00;;;11.00;99.90;;;;;;5054559;28;20641;-67
2022/11/04 01:21:11;;;;;;;0.08;0.08;;;10.90;99.90;;;;;;5054305;28;20188;-67
2022/11/04 01:23:38;;;;;;;0.47;0.43;;;11.00;99.90;;;;;;5054445;28;20169;-67
2022/11/04 01:26:05;;;;;;;0.00;0.00;;;10.90;99.90;;;;;;5054326;28;20197;-74
2022/11/04 01:28:30;;;;;;;0.00;0.00;;;10.90;99.90;;;;;;5054363;28;20301;-71
2022/11/04 01:30:56;;;;;;;0.00;0.00;;;10.90;99.90;;;;;;5050818;28;20264;-70
2022/11/04 01:33:22;;;;;;;0.00;0.00;;;10.90;99.90;;;;;;5054089;28;20190;-70
2022/11/04 01:35:47;;;;;;;0.00;0.00;;;10.90;99.90;;;;;;5054131;28;20228;-70
2022/11/04 01:38:13;;;;;;;0.20;0.20;;;10.90;99.90;;;;;;5054053;28;20188;-70
2022/11/04 01:40:39;;;;;;;0.00;0.00;;;10.90;99.90;;;;;;5054096;28;20193;-70
2022/11/04 01:43:16;;;;;;;0.00;0.00;;;10.90;99.90;;;;;;5052575;28;20513;-70
2022/11/04 01:45:46;;;;;;;0.00;0.00;;;10.80;99.90;;;;;;5054180;28;20185;-70
2022/11/04 01:48:21;;;;;;;0.00;0.00;;;10.80;99.90;;;;;;5053819;28;20217;-70
2022/11/04 01:50:48;;;;;;;0.00;0.00;;;10.80;99.90;;;;;;5052389;28;20205;-69
2022/11/04 01:53:28;;;;;;;0.00;0.00;;;10.80;99.90;;;;;;5053204;28;20625;-69
2022/11/04 01:55:57;;;;;;;0.00;0.00;;;10.80;99.90;;;;;;5053815;28;20185;-70
2022/11/04 01:58:28;;;;;;;0.00;0.00;;;10.80;99.90;;;;;;5053298;28;20186;-69
2022/11/04 02:00:53;;;;;;;0.00;0.00;;;10.70;99.90;;;;;;5053808;28;20200;-70
2022/11/04 02:03:50;;;;;;;0.00;0.00;;;10.70;99.90;;;;;;5053154;28;20632;-71
2022/11/04 02:06:18;;;;;;;0.00;0.00;;;10.70;99.90;;;;;;5040749;28;20421;-70
2022/11/04 02:08:44;;;;;;;0.00;0.00;;;10.70;99.90;;;;;;5051874;28;20363;-70
2022/11/04 02:12:48;;;;;;;0.00;0.00;;;10.70;99.90;;;;;;5053221;28;20174;-70
2022/11/04 02:13:55;;;;;;;0.00;0.00;;;10.70;99.90;;;;;;5053326;28;20185;-71
2022/11/04 02:16:48;;;;;;;0.00;0.00;;;10.70;99.90;;;;;;5053935;28;20188;-71
2022/11/04 02:19:35;;;;;;;0.00;0.00;;;10.70;99.90;;;;;;5049582;28;20198;-70
2022/11/04 02:22:19;;;;;;;0.00;0.00;;;10.60;99.90;;;;;;5043951;28;20174;-70
2022/11/04 02:24:59;;;;;;;0.00;0.00;;;10.60;99.90;;;;;;5052744;28;20181;-70
2022/11/04 02:27:36;;;;;;;0.00;0.00;;;10.60;99.90;;;;;;5053053;28;20227;-70
2022/11/04 02:30:17;;;;;;;0.00;0.00;;;10.60;99.90;;;;;;5052859;28;20192;-70
2022/11/04 02:33:14;;;;;;;0.00;0.00;;;10.50;99.90;;;;;;5051550;28;20611;-70
2022/11/04 02:35:59;;;;;;;0.00;0.00;;;10.50;99.90;;;;;;5034307;28;20182;-70
2022/11/04 02:38:49;;;;;;;0.00;0.00;;;10.50;99.90;;;;;;5053211;28;20181;-71
2022/11/04 02:42:01;;;;;;;0.00;0.00;;;10.40;99.90;;;;;;5050531;28;20178;-70
2022/11/04 02:44:47;;;;;;;0.00;0.00;;;10.40;99.90;;;;;;5027761;28;20193;-70
2022/11/04 02:47:18;;;;;;;0.55;0.55;;;10.40;99.90;;;;;;5052220;28;20205;-70
2022/11/04 02:49:51;;;;;;;0.00;0.00;;;10.40;99.90;;;;;;5052543;28;20209;-71
2022/11/04 02:52:38;;;;;;;0.00;0.00;;;10.30;99.90;;;;;;5052860;28;20207;-70
2022/11/04 02:55:11;;;;;;;0.00;0.00;;;10.30;99.90;;;;;;5048548;28;20284;-70
2022/11/04 02:57:40;;;;;;;0.00;0.00;;;10.30;99.90;;;;;;5045440;28;20268;-70
2022/11/04 03:00:08;;;;;;;0.00;0.00;;;10.20;99.90;;;;;;5052341;28;20585;-70
2022/11/04 03:02:41;;;;;;;0.00;0.00;;;10.20;99.90;;;;;;5052255;28;20186;-70
2022/11/04 03:05:11;;;;;;;0.00;0.00;;;10.20;99.90;;;;;;5050895;28;20243;-70
2022/11/04 03:07:40;;;;;;;0.00;0.00;;;10.10;99.90;;;;;;5051676;28;20228;-70
2022/11/04 03:10:31;;;;;;;0.00;0.00;;;10.10;99.90;;;;;;5051728;28;20656;-70
2022/11/04 03:13:03;;;;;;;0.00;0.00;;;10.10;99.90;;;;;;5052322;28;20621;-70
2022/11/04 03:15:33;;;;;;;0.00;0.00;;;10.10;99.90;;;;;;5052051;28;20186;-70
2022/11/04 03:18:20;;;;;;;0.00;0.00;;;10.00;99.90;;;;;;5052085;28;20227;-70
2022/11/04 03:20:48;;;;;;;0.00;0.00;;;10.00;99.90;;;;;;5045024;28;20188;-70
2022/11/04 03:23:14;;;;;;;0.00;0.00;;;10.00;99.90;;;;;;5052215;28;20189;-70
2022/11/04 03:25:44;;;;;;;0.00;0.00;;;10.00;99.90;;;;;;5052308;28;20250;-70
2022/11/04 03:28:12;;;;;;;0.00;0.00;;;10.00;99.90;;;;;;5052220;28;20558;-70
2022/11/04 03:30:42;;;;;;;0.00;0.00;;;10.00;99.90;;;;;;5052230;28;20174;-70
2022/11/04 03:33:18;;;;;;;0.00;0.00;;;9.90;99.90;;;;;;5051547;28;20560;-70
2022/11/04 03:35:43;;;;;;;0.00;0.00;;;9.90;99.90;;;;;;5052112;28;20638;-70
2022/11/04 03:38:09;;;;;;;0.00;0.00;;;9.90;99.90;;;;;;5051804;28;20308;-70
2022/11/04 03:40:35;;;;;;;0.00;0.00;;;9.90;99.90;;;;;;5051865;28;20177;-70
2022/11/04 03:43:11;;;;;;;0.00;0.00;;;9.90;99.90;;;;;;5051928;28;20185;-70
2022/11/04 03:45:38;;;;;;;0.00;0.00;;;9.90;99.90;;;;;;5050564;28;20188;-70
2022/11/04 03:48:04;;;;;;;0.00;0.00;;;9.80;99.90;;;;;;5051922;28;20240;-70
2022/11/04 03:50:49;;;;;;;0.00;0.00;;;9.80;99.90;;;;;;5051887;28;20660;-70
2022/11/04 03:53:20;;;;;;;0.00;0.00;;;9.70;99.90;;;;;;5051818;28;20640;-70
2022/11/04 03:56:07;;;;;;;0.00;0.00;;;9.80;99.90;;;;;;5051377;28;20181;-70
2022/11/04 03:59:03;;;;;;;0.00;0.00;;;9.70;99.90;;;;;;5046861;28;20216;-70
2022/11/04 04:01:53;;;;;;;0.00;0.00;;;9.70;99.90;;;;;;5048774;28;20275;-70
2022/11/04 04:04:36;;;;;;;0.00;0.00;;;9.70;99.90;;;;;;5050387;28;20200;-70
2022/11/04 04:07:11;;;;;;;0.00;0.00;;;9.70;99.90;;;;;;5051431;28;20231;-70
2022/11/04 04:10:00;;;;;;;0.00;0.00;;;9.60;99.90;;;;;;5049643;28;20209;-70
2022/11/04 04:12:36;;;;;;;0.00;0.00;;;9.60;99.90;;;;;;5049691;28;20584;-70
2022/11/04 04:15:16;;;;;;;0.00;0.00;;;9.60;99.90;;;;;;5051056;28;20192;-70
2022/11/04 04:17:49;;;;;;;0.00;0.00;;;9.70;99.90;;;;;;5050866;28;20281;-70
2022/11/04 04:20:19;;;;;;;0.00;0.00;;;9.70;99.90;;;;;;5051138;28;20185;-69
2022/11/04 04:22:51;;;;;;;0.00;0.00;;;9.70;99.90;;;;;;5050750;28;20181;-69
2022/11/04 04:28:03;;;;;;;0.00;0.00;;;9.70;99.90;;;;;;5050331;28;20212;-69
2022/11/04 04:30:29;;;;;;;0.00;0.00;;;9.70;99.90;;;;;;5051156;28;20181;-69
2022/11/04 04:33:23;;;;;;;0.00;0.00;;;9.70;99.90;;;;;;5051237;28;20182;-71
2022/11/04 04:35:54;;;;;;;0.00;0.00;;;9.70;99.90;;;;;;5047846;28;20224;-70
2022/11/04 04:47:18;;;;;;;0.00;0.00;;;9.60;99.90;;;;;;5050685;28;20251;-71
2022/11/04 04:49:50;;;;;;;0.00;0.00;;;9.60;99.90;;;;;;5048240;28;20231;-68
2022/11/04 04:52:16;;;;;;;0.00;0.00;;;9.60;99.90;;;;;;5051782;28;20208;-69
2022/11/04 04:54:43;;;;;;;0.00;0.00;;;9.60;99.90;;;;;;5050416;28;20177;-66
2022/11/04 04:57:09;;;;;;;0.00;0.00;;;9.60;99.90;;;;;;5051043;28;20182;-69
2022/11/04 04:59:34;;;;;;;0.00;0.00;;;9.60;99.90;;;;;;5051239;28;20534;-67
2022/11/04 05:02:00;;;;;;;0.00;0.00;;;9.70;99.90;;;;;;5049883;28;20184;-67
2022/11/04 05:04:25;;;;;;;0.00;0.00;;;9.70;99.90;;;;;;5051293;28;20204;-69
2022/11/04 05:06:51;;;;;;;0.10;0.10;;;9.70;99.90;;;;;;5053665;28;20217;-67
2022/11/04 05:09:16;;;;;;;0.00;0.00;;;9.60;99.90;;;;;;5050730;28;20217;-69
2022/11/04 05:11:42;;;;;;;0.00;0.00;;;9.60;99.90;;;;;;5050758;28;20182;-69
2022/11/04 05:14:07;;;;;;;0.03;0.03;;;9.70;99.90;;;;;;5050654;28;20636;-63
2022/11/04 05:16:33;;;;;;;0.00;0.00;;;9.60;99.90;;;;;;5050965;28;20274;-70
2022/11/04 05:18:59;;;;;;;0.00;0.00;;;9.60;99.90;;;;;;5050682;28;20657;-64
2022/11/04 05:21:24;;;;;;;0.00;0.00;;;9.60;99.90;;;;;;5050617;28;20177;-69
2022/11/04 05:23:49;;;;;;;0.00;0.00;;;9.60;99.90;;;;;;5049589;28;20192;-66
2022/11/04 05:26:15;;;;;;;0.00;0.00;;;9.60;99.90;;;;;;5049936;28;20174;-66
2022/11/04 05:28:41;;;;;;;0.00;0.00;;;9.60;99.90;;;;;;5050851;28;20566;-70
2022/11/04 05:31:06;;;;;;;0.00;0.00;;;9.60;99.90;;;;;;5049510;28;20287;-70
2022/11/04 05:33:32;;;;;;;0.00;0.00;;;9.60;99.90;;;;;;5053732;28;20531;-66
2022/11/04 05:36:09;;;;;;;0.00;0.00;;;9.50;99.90;;;;;;5053447;28;20188;-70
2022/11/04 05:38:35;;;;;;;0.00;0.00;;;9.50;99.90;;;;;;5053756;28;20181;-69
2022/11/04 05:41:01;;;;;;;0.30;0.30;;;9.50;99.90;;;;;;5053440;28;20243;-70
2022/11/04 05:43:26;;;;;;;0.00;0.00;;;9.50;99.90;;;;;;5052834;28;20181;-70
2022/11/04 05:45:52;;;;;;;0.00;0.00;;;9.50;99.90;;;;;;5054334;28;20261;-70
2022/11/04 05:48:18;;;;;;;0.00;0.00;;;9.40;99.90;;;;;;5054106;28;20241;-69
2022/11/04 05:50:43;;;;;;;0.00;0.00;;;9.40;99.90;;;;;;5053767;28;20178;-70
2022/11/04 05:53:09;;;;;;;0.00;0.00;;;9.40;99.90;;;;;;5053457;28;20181;-70
2022/11/04 05:55:34;;;;;;;0.00;0.00;;;9.40;99.90;;;;;;5053682;28;20178;-70
2022/11/04 05:58:00;;;;;;;0.00;0.00;;;9.40;99.90;;;;;;5054155;28;20205;-70
2022/11/04 06:00:26;;;;;;;0.00;0.00;;;9.40;99.90;;;;;;5053968;28;20174;-68
2022/11/04 06:02:56;;;;;;;0.00;0.00;;;9.30;99.90;;;;;;5053640;28;20186;-69
2022/11/04 06:05:22;;;;;;;0.00;0.00;;;9.30;99.90;;;;;;5053256;28;20185;-66
2022/11/04 06:07:47;;;;;;;0.00;0.00;;;9.30;99.90;;;;;;5052984;28;20282;-67
2022/11/04 06:10:13;;;;;;;0.10;0.10;;;9.30;99.90;;;;;;5052853;28;20185;-67
2022/11/04 06:12:39;;;;;;;0.00;0.00;;;9.20;99.90;;;;;;5053896;28;20173;-67
2022/11/04 06:15:05;;;;;;;0.00;0.00;;;9.30;99.90;;;;;;5054112;28;20268;-67
2022/11/04 06:17:30;;;;;;;0.00;0.00;;;9.20;99.90;;;;;;5054028;28;20188;-67
2022/11/04 06:19:56;;;;;;;0.00;0.00;;;9.20;99.90;;;;;;5053948;28;20173;-67
2022/11/04 06:22:22;;;;;;;0.00;0.00;;;9.20;99.90;;;;;;5054163;28;20254;-67
2022/11/04 06:24:47;;;;;;;0.00;0.00;;;9.20;99.90;;;;;;5053891;28;20512;-67
2022/11/04 06:27:13;;;;;;;0.00;0.00;;;9.20;99.90;;;;;;5053837;28;20239;-67
2022/11/04 06:29:39;;;;;;;0.03;0.03;;;9.20;99.90;;;;;;5053860;28;20248;-67
2022/11/04 06:32:09;;;;;;;0.22;0.15;;;9.20;99.90;;;;;;5053659;28;20640;-67
2022/11/04 06:34:35;;;;;;;0.00;0.00;;;9.20;99.90;;;;;;5053759;28;20268;-67
2022/11/04 06:37:00;;;;;;;0.00;0.00;;;9.20;99.90;;;;;;5053571;28;20263;-67
2022/11/04 06:39:26;;;;;;;0.00;0.00;;;9.20;99.90;;;;;;5053573;28;20177;-67
2022/11/04 06:41:51;;;;;;;0.00;0.00;;;9.10;99.90;;;;;;5053581;28;20208;-67
2022/11/04 06:44:17;;;;;;;0.00;0.00;;;9.10;99.90;;;;;;5053368;28;20224;-67
2022/11/04 06:46:43;;;;;;;0.30;0.30;;;9.10;99.90;;;;;;5053556;28;20603;-67
2022/11/04 06:49:15;;;;;;;0.00;0.00;;;9.10;99.90;;;;;;5053237;28;20221;-67
2022/11/04 06:51:40;;;;;;;0.00;0.00;;;9.10;99.90;;;;;;5053694;28;20181;-67
2022/11/04 06:54:06;;;;;;;1.35;0.52;;;9.10;99.90;;;;;;5053321;28;20185;-67
2022/11/04 06:56:32;;;;;;;0.00;0.00;;;9.10;99.90;;;;;;5053433;28;20177;-67
2022/11/04 06:58:57;;;;;;;0.00;0.00;;;9.10;99.90;;;;;;5053347;28;20603;-67
2022/11/04 07:01:27;;;;;;;0.10;0.10;;;9.10;99.90;;;;;;5053163;28;20182;-67
2022/11/04 07:03:56;;;;;;;0.00;0.00;;;9.20;99.90;;;;;;5053149;28;20717;-67
2022/11/04 07:06:22;;;;;;;0.00;0.00;;;9.20;99.90;;;;;;5053131;28;20204;-67
2022/11/04 07:08:48;;;;;;;0.00;0.00;;;9.20;99.90;;;;;;5052861;28;20271;-67
2022/11/04 07:11:16;;;;;;;0.10;0.10;;;9.20;99.90;;;;;;5052951;28;20283;-67
2022/11/04 07:13:41;;;;;;;0.00;0.00;;;9.30;99.90;;;;;;5053165;28;20205;-67
2022/11/04 07:16:08;;;;;;;0.00;0.00;;;9.30;99.90;;;;;;5053038;28;20576;-67
2022/11/04 07:18:34;;;;;;;0.00;0.00;;;9.30;99.90;;;;;;5053068;28;20264;-67
2022/11/04 07:21:00;;;;;;;0.00;0.00;;;9.30;99.90;;;;;;5052813;28;20327;-67
2022/11/04 07:23:26;;;;;;;0.00;0.00;;;9.30;99.90;;;;;;5052912;28;20529;-67
2022/11/04 07:25:53;;;;;;;0.00;0.00;;;9.30;99.90;;;;;;5052812;28;20204;-67
2022/11/04 07:28:19;;;;;;;0.00;0.00;;;9.40;99.90;;;;;;5052712;28;20208;-67
2022/11/04 07:30:44;;;;;;;0.00;0.00;;;9.40;99.90;;;;;;5052725;28;20190;-67
2022/11/04 07:33:10;;;;;;;0.00;0.00;;;9.50;99.90;;;;;;5052508;28;20174;-67
2022/11/04 07:35:36;;;;;;;0.00;0.00;;;9.50;99.90;;;;;;5052656;28;20208;-67
2022/11/04 07:38:02;;;;;;;0.00;0.00;;;9.60;99.90;;;;;;5052475;28;20170;-67
2022/11/04 07:40:29;;;;;;;0.00;0.00;;;9.60;99.90;;;;;;5052624;28;20224;-67
2022/11/04 07:42:55;;;;;;;0.00;0.00;;;9.70;99.90;;;;;;5052527;28;20188;-67
2022/11/04 07:45:20;;;;;;;0.00;0.00;;;9.70;99.90;;;;;;5052317;28;20174;-67
2022/11/04 07:47:46;;;;;;;0.00;0.00;;;9.80;99.90;;;;;;5050976;28;20177;-67
2022/11/04 07:50:12;;;;;;;0.00;0.00;;;9.90;99.90;;;;;;5052277;28;20232;-67
2022/11/04 07:52:38;;;;;;;0.00;0.00;;;9.90;99.90;;;;;;5052302;28;20161;-67
2022/11/04 07:55:03;;;;;;;0.00;0.00;;;10.00;99.90;;;;;;5051739;28;20173;-67
2022/11/04 07:57:29;;;;;;;0.00;0.00;;;10.00;99.90;;;;;;5052034;28;20178;-67
2022/11/04 07:59:55;;;;;;;0.00;0.00;;;10.10;99.90;;;;;;5052204;28;20260;-67
2022/11/04 08:02:20;;;;;;;0.00;0.00;;;10.20;99.90;;;;;;5051947;28;20189;-67
2022/11/04 08:04:46;;;;;;;0.00;0.00;;;10.30;99.90;;;;;;5052355;28;20182;-67
2022/11/04 08:07:12;;;;;;;0.00;0.00;;;10.30;99.90;;;;;;5051907;28;20723;-67
2022/11/04 08:09:38;;;;;;;0.00;0.00;;;10.40;99.90;;;;;;5051925;28;20205;-67
2022/11/04 08:12:04;;;;;;;0.00;0.00;;;10.50;99.90;;;;;;5052077;28;20174;-67
2022/11/04 08:14:30;;;;;;;0.00;0.00;;;10.60;99.90;;;;;;5051872;28;20181;-67
2022/11/04 08:16:56;;;;;;;0.20;0.20;;;10.60;99.90;;;;;;5051994;28;20176;-67
2022/11/04 08:19:21;;;;;;;0.00;0.00;;;10.70;99.90;;;;;;5051968;28;20252;-67
2022/11/04 08:21:47;;;;;;;0.00;0.00;;;10.70;99.90;;;;;;5051930;28;20170;-67
2022/11/04 08:24:13;;;;;;;0.00;0.00;;;10.80;99.90;;;;;;5052147;28;20204;-67
2022/11/04 08:26:38;;;;;;;0.00;0.00;;;10.80;99.90;;;;;;5051745;28;20180;-67
2022/11/04 08:29:07;;;;;;;0.10;0.10;;;10.90;99.90;;;;;;5051743;28;20225;-67
2022/11/04 08:31:33;;;;;;;0.00;0.00;;;11.00;99.90;;;;;;5051766;28;20174;-67
2022/11/04 08:34:00;;;;;;;0.00;0.00;;;11.00;99.90;;;;;;5051878;28;20177;-67
2022/11/04 08:36:35;;;;;;;0.00;0.00;;;11.20;99.90;;;;;;5051809;28;20169;-67
2022/11/04 08:39:03;;;;;;;0.00;0.00;;;11.30;99.90;;;;;;5051908;28;20256;-67
2022/11/04 08:41:30;;;;;;;0.00;0.00;;;11.40;99.90;;;;;;5051680;28;20196;-67
2022/11/04 08:43:59;;;;;;;0.00;0.00;;;11.50;99.90;;;;;;5051551;28;20181;-67
2022/11/04 08:46:28;;;;;;;0.00;0.00;;;11.70;99.90;;;;;;5051726;28;20227;-67
2022/11/04 08:48:53;;;;;;;0.00;0.00;;;11.80;99.90;;;;;;5051649;28;20205;-67
2022/11/04 08:51:22;;;;;;;0.00;0.00;;;11.90;99.90;;;;;;5051503;28;20242;-67
2022/11/04 08:53:47;;;;;;;0.00;0.00;;;12.00;99.90;;;;;;5051627;28;20211;-67
2022/11/04 08:56:17;;;;;;;0.00;0.00;;;12.00;99.90;;;;;;5051617;28;20255;-67
2022/11/04 08:58:43;;;;;;;0.00;0.00;;;12.10;99.90;;;;;;5051651;28;20181;-67
2022/11/04 09:01:09;;;;;;;0.47;0.17;;;12.20;99.90;;;;;;5051394;28;20176;-67
2022/11/04 09:03:37;;;;;;;0.00;0.00;;;12.20;99.90;;;;;;5051660;28;20189;-67
2022/11/04 09:06:04;;;;;;;0.00;0.00;;;12.30;99.90;;;;;;5051534;28;20511;-67
2022/11/04 09:08:29;;;;;;;0.00;0.00;;;12.50;99.90;;;;;;5054517;28;20233;-67
2022/11/04 09:10:55;;;;;;;0.00;0.00;;;12.50;99.90;;;;;;5055237;28;20667;-67
2022/11/04 09:13:20;;;;;;;0.00;0.00;;;12.70;99.90;;;;;;5055193;28;20177;-67
2022/11/04 09:15:47;;;;;;;0.00;0.00;;;12.80;99.90;;;;;;5055189;28;20181;-67
2022/11/04 09:18:13;;;;;;;0.00;0.00;;;13.00;99.90;;;;;;5055197;28;20170;-67
2022/11/04 09:20:40;;;;;;;0.00;0.00;;;13.10;99.90;;;;;;5055134;28;20535;-67
2022/11/04 09:23:07;;;;;;;0.00;0.00;;;13.10;99.90;;;;;;5054935;28;20181;-67
2022/11/04 09:25:33;;;;;;;0.00;0.00;;;13.20;99.90;;;;;;5055086;28;20174;-67
2022/11/04 09:27:59;;;;;;;0.00;0.00;;;13.20;99.90;;;;;;5054870;28;20184;-67
2022/11/04 09:30:25;;;;;;;0.00;0.00;;;13.20;99.90;;;;;;5054831;28;20185;-67
2022/11/04 09:32:51;;;;;;;0.00;0.00;;;13.10;99.90;;;;;;5054788;28;20248;-67
2022/11/04 09:35:17;;;;;;;0.00;0.00;;;13.00;99.90;;;;;;5054829;28;20185;-67
2022/11/04 09:37:43;;;;;;;0.00;0.00;;;12.90;99.90;;;;;;5054937;28;20174;-67
2022/11/04 09:40:15;;;;;;;0.00;0.00;;;12.80;99.90;;;;;;5054774;28;20177;-67
2022/11/04 09:42:47;;;;;;;0.00;0.00;;;12.80;99.90;;;;;;5054815;28;20189;-67
2022/11/04 09:45:17;;;;;;;0.00;0.00;;;12.80;99.90;;;;;;5054744;28;20182;-67
2022/11/04 09:47:46;;;;;;;0.00;0.00;;;12.80;99.90;;;;;;5054724;28;20177;-67
2022/11/04 09:50:21;;;;;;;0.00;0.00;;;13.00;99.90;;;;;;5054538;28;20208;-67
2022/11/04 09:52:53;;;;;;;0.00;0.00;;;13.00;99.90;;;;;;5054603;28;20173;-67
2022/11/04 09:55:38;;;;;;;0.00;0.00;;;13.10;99.90;;;;;;5054518;28;20189;-67
2022/11/04 09:58:04;;;;;;;0.00;0.00;;;13.10;99.90;;;;;;5054505;28;20166;-67
2022/11/04 10:00:34;;;;;;;0.00;0.00;;;13.00;99.90;;;;;;5054401;28;20212;-67
2022/11/04 10:03:02;;;;;;;0.00;0.00;;;12.90;99.90;;;;;;5054190;28;20173;-67
2022/11/04 10:05:33;;;;;;;0.00;0.00;;;12.80;99.90;;;;;;5054217;28;20559;-67
2022/11/04 10:08:32;;;;;;;0.00;0.00;;;12.80;99.90;;;;;;5053974;28;20707;-67
2022/11/04 10:11:26;;;;;;;0.00;0.00;;;12.90;99.90;;;;;;5052827;28;20654;-67
2022/11/04 10:14:30;;;;;;;0.00;0.00;;;12.90;99.90;;;;;;5054229;28;20255;-67
2022/11/04 10:17:12;;;;;;;0.00;0.00;;;13.00;99.90;;;;;;5054195;28;20173;-67
2022/11/04 10:20:23;;;;;;;0.00;0.00;;;13.00;99.90;;;;;;5053932;28;20182;-67
2022/11/04 10:22:57;;;;;;;0.00;0.00;;;13.10;99.90;;;;;;5054019;28;20177;-67
2022/11/04 10:25:29;;;;;;;0.00;0.00;;;13.20;99.90;;;;;;5053901;28;20181;-67
2022/11/04 10:27:56;;;;;;;0.00;0.00;;;13.30;99.90;;;;;;5052825;28;20213;-67
2022/11/04 10:30:24;;;;;;;0.00;0.00;;;13.40;99.90;;;;;;5054009;28;20181;-67
2022/11/04 10:32:56;;;;;;;0.00;0.00;;;13.50;99.90;;;;;;5053891;28;20253;-67
2022/11/04 10:35:36;;;;;;;0.00;0.00;;;13.50;99.90;;;;;;5053777;28;20177;-67
2022/11/04 10:38:42;;;;;;;0.08;0.08;;;13.60;99.90;;;;;;5053798;28;20182;-67
2022/11/04 10:41:23;;;;;;;0.00;0.00;;;13.70;99.90;;;;;;5053378;28;20196;-67
2022/11/04 10:43:51;;;;;;;0.00;0.00;;;13.80;99.90;;;;;;5053543;28;20169;-68
2022/11/04 10:46:22;;;;;;;0.00;0.00;;;13.80;99.90;;;;;;5053530;28;20170;-68
2022/11/04 10:49:01;;;;;;;0.00;0.00;;;13.90;99.90;;;;;;5053369;28;20205;-68
2022/11/04 10:51:27;;;;;;;0.00;0.00;;;13.90;99.90;;;;;;5053495;28;20525;-68
2022/11/04 10:53:58;;;;;;;0.00;0.00;;;14.00;99.90;;;;;;5053494;28;20181;-68
2022/11/04 10:56:40;;;;;;;0.00;0.00;;;14.00;99.90;;;;;;5053511;28;20676;-68
2022/11/04 10:59:28;;;;;;;0.00;0.00;;;14.00;99.90;;;;;;5053311;28;20658;-68
2022/11/04 11:01:56;;;;;;;0.00;0.00;;;13.90;99.90;;;;;;5053263;28;20177;-68
2022/11/04 11:04:33;;;;;;;0.00;0.00;;;14.00;99.90;;;;;;5053086;28;20628;-68
2022/11/04 11:07:08;;;;;;;0.00;0.00;;;14.10;99.90;;;;;;5053086;28;20299;-68
2022/11/04 11:09:40;;;;;;;0.00;0.00;;;14.30;99.90;;;;;;5051771;28;20259;-68
2022/11/04 11:12:28;;;;;;;0.00;0.00;;;14.40;99.90;;;;;;5053039;28;20223;-69
2022/11/04 11:14:57;;;;;;;0.00;0.00;;;14.40;99.90;;;;;;5053018;28;20170;-68
2022/11/04 11:17:25;;;;;;;0.00;0.00;;;14.40;99.90;;;;;;5052900;28;20459;-69
2022/11/04 11:19:59;;;;;;;0.00;0.00;;;14.40;99.90;;;;;;5052831;28;20178;-68
2022/11/04 11:22:35;;;;;;;0.00;0.00;;;14.30;99.90;;;;;;5052879;28;20181;-69
2022/11/04 11:25:22;;;;;;;0.00;0.00;;;14.40;99.90;;;;;;5052932;28;20169;-67
2022/11/04 11:27:54;;;;;;;0.00;0.00;;;14.40;99.90;;;;;;5052801;28;20257;-67
2022/11/04 11:30:43;;;;;;;0.00;0.00;;;14.50;99.90;;;;;;5051992;28;20189;-68
2022/11/04 11:33:27;;;;;;;0.00;0.00;;;14.50;99.90;;;;;;5052527;28;20177;-68
2022/11/04 11:36:01;;;;;;;0.00;0.00;;;14.60;99.90;;;;;;5052661;28;20181;-67
2022/11/04 11:38:29;;;;;;;0.00;0.00;;;14.70;99.40;;;;;;5052216;28;20203;-68
2022/11/04 11:41:17;;;;;;;0.00;0.00;;;14.70;99.80;;;;;;5052625;28;20507;-67
2022/11/04 11:43:48;;;;;;;0.00;0.00;;;14.70;99.90;;;;;;5052607;28;20272;-68
2022/11/04 11:46:27;;;;;;;0.00;0.00;;;14.70;99.50;;;;;;5052531;28;20166;-68
2022/11/04 11:49:00;;;;;;;0.20;0.20;;;14.50;98.80;;;;;;5052386;28;20216;-67
2022/11/04 11:51:37;;;;;;;0.00;0.00;;;14.40;99.30;;;;;;5052381;28;20173;-68
2022/11/04 11:54:17;;;;;;;0.00;0.00;;;14.30;99.60;;;;;;5052563;28;20185;-68
2022/11/04 11:56:47;;;;;;;0.00;0.00;;;14.50;99.90;;;;;;5052429;28;20255;-67
2022/11/04 11:59:25;;;;;;;0.00;0.00;;;14.60;99.80;;;;;;5052305;28;20165;-69
2022/11/04 12:02:01;;;;;;;0.00;0.00;;;14.80;99.30;;;;;;5052304;28;20173;-68
2022/11/04 12:04:26;;;;;;;0.00;0.00;;;14.90;98.50;;;;;;5052065;28;20192;-68
2022/11/04 12:06:57;;;;;;;0.00;0.00;;;15.10;98.40;;;;;;5052094;28;20574;-67
2022/11/04 12:09:37;;;;;;;0.00;0.00;;;15.20;98.20;;;;;;5051925;28;20216;-67
2022/11/04 12:12:20;;;;;;;0.43;0.17;;;15.10;98.70;;;;;;5051907;28;20170;-67
2022/11/04 12:15:11;;;;;;;0.00;0.00;;;15.20;99.30;;;;;;5052068;28;20640;-67
2022/11/04 12:18:01;;;;;;;0.00;0.00;;;15.40;99.40;;;;;;5052346;28;20518;-67
2022/11/04 12:20:58;;;;;;;0.00;0.00;;;15.60;98.80;;;;;;5051944;28;20725;-67
2022/11/04 12:23:35;;;;;;;0.00;0.00;;;15.90;98.10;;;;;;5052017;28;20529;-67
2022/11/04 12:26:17;;;;;;;0.20;0.10;;;16.00;97.90;;;;;;5051897;28;20589;-67
2022/11/04 12:29:14;;;;;;;0.00;0.00;;;16.10;97.80;;;;;;5051983;28;20292;-67
2022/11/04 12:32:06;;;;;;;0.35;0.30;;;16.20;98.00;;;;;;5051950;28;20185;-67
2022/11/04 12:35:07;;;;;;;0.00;0.00;;;16.30;97.60;;;;;;5051942;28;20174;-67
2022/11/04 12:38:00;;;;;;;0.00;0.00;;;16.30;97.70;;;;;;5050670;28;20267;-67
2022/11/04 12:40:43;;;;;;;0.00;0.00;;;16.20;96.70;;;;;;5051477;28;20213;-66
2022/11/04 12:43:48;;;;;;;0.00;0.00;;;16.20;96.70;;;;;;5054979;28;20586;-66
2022/11/04 12:46:46;;;;;;;0.00;0.00;;;16.10;96.30;;;;;;5046148;28;20197;-66
2022/11/04 12:49:49;;;;;;;0.00;0.00;;;15.90;96.00;;;;;;5053367;28;20695;-66
2022/11/04 12:52:46;;;;;;;0.00;0.00;;;15.80;96.80;;;;;;5055758;28;20185;-66
2022/11/04 12:55:43;;;;;;;0.00;0.00;;;15.70;97.10;;;;;;5055443;28;20204;-66
2022/11/04 12:58:31;;;;;;;0.00;0.00;;;15.60;97.40;;;;;;5055139;28;20190;-67
2022/11/04 13:01:04;;;;;;;0.00;0.00;;;15.60;96.80;;;;;;5055486;28;20227;-66
2022/11/04 13:03:41;;;;;;;0.00;0.00;;;15.60;96.90;;;;;;5050666;28;20297;-66
2022/11/04 13:06:18;;;;;;;0.00;0.00;;;15.60;97.10;;;;;;5053314;28;20189;-66
2022/11/04 13:09:13;;;;;;;0.00;0.00;;;15.70;97.70;;;;;;5054790;28;20233;-66
2022/11/04 13:11:43;;;;;;;0.00;0.00;;;15.70;97.10;;;;;;5049298;28;20189;-66
2022/11/04 13:14:21;;;;;;;0.00;0.00;;;15.70;97.00;;;;;;5053449;28;20200;-66
2022/11/04 13:16:50;;;;;;;0.00;0.00;;;15.60;97.20;;;;;;5055096;28;20264;-66
2022/11/04 13:19:30;;;;;;;0.00;0.00;;;15.70;97.60;;;;;;5054727;28;20549;-66
2022/11/04 13:21:57;;;;;;;0.00;0.00;;;15.70;97.20;;;;;;5055133;28;20656;-66
2022/11/04 13:24:34;;;;;;;0.00;0.00;;;15.80;96.90;;;;;;5054714;28;20193;-66
2022/11/04 13:27:13;;;;;;;0.00;0.00;;;15.70;96.80;;;;;;5054848;28;20188;-66
2022/11/04 13:29:39;;;;;;;0.00;0.00;;;15.80;96.90;;;;;;5054767;28;20217;-66
2022/11/04 13:32:26;;;;;;;0.00;0.00;;;15.80;97.10;;;;;;5053287;28;20181;-66
2022/11/04 13:35:07;;;;;;;0.00;0.00;;;15.80;97.00;;;;;;5041515;28;20694;-66
2022/11/04 13:37:43;;;;;;;0.00;0.00;;;15.80;96.60;;;;;;5054893;28;20211;-66
2022/11/04 13:40:35;;;;;;;0.00;0.00;;;15.70;96.30;;;;;;5054164;28;20534;-66
2022/11/04 13:43:36;;;;;;;0.00;0.00;;;15.60;96.60;;;;;;5054542;28;20192;-66
2022/11/04 13:46:07;;;;;;;0.00;0.00;;;15.50;97.30;;;;;;5054271;28;20181;-66